Time;durP1;ratioP1;P1;durP2;ratioP2;P2;SDS_P1;SDS_P2;PMS_P1;PMS_P2;Temp;Humidity;BMP_temperature;BMP_pressure;BME280_temperature;BME280_humidity;BME280_pressure;Samples;Min_cycle;Max_cycle;Signal;HPM_P1;HPM_P2
2022/12/11 00:02:02;;;;;;;37.60;16.30;;;-0.70;88.30;;;;;;5027102;28;20213;-72
2022/12/11 00:04:27;;;;;;;34.30;14.90;;;-0.70;88.30;;;;;;5030520;28;20482;-72
2022/12/11 00:06:53;;;;;;;36.73;15.67;;;-0.70;88.40;;;;;;5019806;28;20273;-72
2022/12/11 00:09:19;;;;;;;33.77;15.90;;;-0.70;88.40;;;;;;5019393;28;20236;-72
2022/12/11 00:11:46;;;;;;;34.72;14.95;;;-0.70;88.40;;;;;;5023263;28;20272;-73
2022/12/11 00:14:12;;;;;;;34.20;15.32;;;-0.80;88.40;;;;;;5021746;28;20248;-73
2022/12/11 00:16:38;;;;;;;33.75;14.68;;;-0.80;88.60;;;;;;5023245;28;20180;-72
2022/12/11 00:19:04;;;;;;;31.05;14.27;;;-0.90;88.70;;;;;;5021276;28;20300;-73
2022/12/11 00:21:30;;;;;;;29.70;14.63;;;-0.90;88.70;;;;;;5026884;28;20632;-74
2022/12/11 00:23:55;;;;;;;31.93;13.60;;;-1.00;88.90;;;;;;5024521;28;20542;-73
2022/12/11 00:26:21;;;;;;;27.47;12.63;;;-0.90;89.20;;;;;;5025621;28;20212;-72
2022/12/11 00:28:51;;;;;;;30.70;14.23;;;-0.90;89.30;;;;;;5017856;28;20577;-71
2022/12/11 00:31:17;;;;;;;30.15;14.60;;;-0.90;89.20;;;;;;5023164;28;20213;-72
2022/12/11 00:33:44;;;;;;;30.63;15.13;;;-0.80;89.30;;;;;;5025211;28;20189;-72
2022/12/11 00:36:12;;;;;;;31.15;14.48;;;-0.70;89.00;;;;;;5021284;28;20234;-73
2022/12/11 00:38:38;;;;;;;33.97;15.30;;;-0.70;89.00;;;;;;5016266;28;20209;-73
2022/12/11 00:41:04;;;;;;;37.60;15.90;;;-0.60;89.00;;;;;;5022548;28;20230;-71
2022/12/11 00:43:29;;;;;;;34.27;15.03;;;-0.50;88.70;;;;;;5019330;28;20173;-73
2022/12/11 00:45:55;;;;;;;31.83;14.90;;;-0.50;88.10;;;;;;5017802;28;20566;-73
2022/12/11 00:48:21;;;;;;;36.17;14.27;;;-0.50;87.60;;;;;;5025449;28;20197;-73
2022/12/11 00:50:47;;;;;;;39.03;16.93;;;-0.50;87.60;;;;;;5020825;28;20619;-72
2022/12/11 00:53:12;;;;;;;30.97;14.13;;;-0.50;87.40;;;;;;5026350;28;20467;-72
2022/12/11 00:55:39;;;;;;;38.47;15.77;;;-0.60;87.30;;;;;;5025089;28;20223;-72
2022/12/11 00:58:05;;;;;;;39.25;16.15;;;-0.60;87.30;;;;;;5023135;28;20208;-72
2022/12/11 01:00:31;;;;;;;37.33;16.87;;;-0.60;87.60;;;;;;5022677;28;20296;-72
2022/12/11 01:02:57;;;;;;;31.10;14.10;;;-0.60;87.70;;;;;;5023095;28;20425;-72
2022/12/11 01:05:22;;;;;;;40.47;16.77;;;-0.50;87.30;;;;;;5017897;28;20427;-72
2022/12/11 01:07:48;;;;;;;32.03;14.63;;;-0.50;87.40;;;;;;5026530;28;20277;-73
2022/12/11 01:10:29;;;;;;;39.30;16.27;;;-0.50;87.40;;;;;;5022352;28;20220;-72
2022/12/11 01:12:58;;;;;;;35.67;15.30;;;-0.40;87.40;;;;;;5022304;28;20227;-72
2022/12/11 01:15:29;;;;;;;31.10;16.23;;;-0.40;87.30;;;;;;5031857;28;20211;-73
2022/12/11 01:17:55;;;;;;;34.00;16.02;;;-0.50;86.30;;;;;;5039708;28;20189;-72
2022/12/11 01:20:25;;;;;;;41.07;16.97;;;-0.50;86.50;;;;;;5026687;28;20692;-72
2022/12/11 01:22:52;;;;;;;39.83;16.95;;;-0.50;86.50;;;;;;5021632;28;20428;-71
2022/12/11 01:25:18;;;;;;;34.13;16.17;;;-0.50;86.50;;;;;;5017974;28;20204;-72
2022/12/11 01:27:43;;;;;;;35.43;15.20;;;-0.50;86.80;;;;;;5019692;28;20581;-71
2022/12/11 01:30:10;;;;;;;35.53;15.37;;;-0.50;86.80;;;;;;5020403;28;20221;-72
2022/12/11 01:32:36;;;;;;;36.58;14.52;;;-0.50;86.60;;;;;;5022628;28;20547;-71
2022/12/11 01:35:03;;;;;;;41.30;17.47;;;-0.40;86.60;;;;;;5026898;28;20186;-72
2022/12/11 01:37:29;;;;;;;34.90;16.65;;;-0.30;86.50;;;;;;5028625;28;20177;-71
2022/12/11 01:39:55;;;;;;;26.33;14.30;;;-0.30;86.30;;;;;;5025529;28;20213;-73
2022/12/11 01:42:21;;;;;;;29.37;16.17;;;-0.30;86.30;;;;;;5023157;28;20506;-71
2022/12/11 01:44:46;;;;;;;35.37;15.97;;;-0.30;86.50;;;;;;5025573;28;20682;-72
2022/12/11 01:47:12;;;;;;;36.87;16.33;;;-0.20;86.60;;;;;;5022206;28;20196;-71
2022/12/11 01:49:40;;;;;;;35.63;17.20;;;-0.20;86.80;;;;;;5026067;28;20201;-71
2022/12/11 01:52:15;;;;;;;41.40;16.95;;;-0.20;86.80;;;;;;5029560;28;20250;-72
2022/12/11 01:54:42;;;;;;;35.83;14.55;;;-0.10;87.00;;;;;;5035939;28;20173;-71
2022/12/11 01:57:11;;;;;;;35.60;15.10;;;-0.10;86.20;;;;;;5030326;28;20253;-72
2022/12/11 01:59:42;;;;;;;34.17;15.23;;;-0.10;85.70;;;;;;5033065;28;20299;-72
2022/12/11 02:02:17;;;;;;;41.08;17.00;;;-0.10;85.70;;;;;;5034585;28;20537;-71
2022/12/11 02:04:44;;;;;;;31.48;15.35;;;0.00;85.90;;;;;;5034189;28;20178;-71
2022/12/11 02:07:10;;;;;;;37.13;15.80;;;0.10;85.90;;;;;;5035007;28;20696;-71
2022/12/11 02:09:38;;;;;;;34.30;16.37;;;0.10;85.60;;;;;;5040193;28;20217;-72
2022/12/11 02:12:31;;;;;;;36.25;15.10;;;0.00;85.60;;;;;;5037806;28;20190;-71
2022/12/11 02:15:45;;;;;;;32.42;15.88;;;0.10;85.30;;;;;;5025149;28;20272;-72
2022/12/11 02:18:32;;;;;;;32.33;14.55;;;-0.10;84.60;;;;;;5019710;28;20197;-71
2022/12/11 02:21:14;;;;;;;30.90;14.40;;;-0.20;84.90;;;;;;5028579;28;20235;-71
2022/12/11 02:23:58;;;;;;;29.08;14.32;;;-0.10;85.00;;;;;;5025759;28;20216;-72
2022/12/11 02:26:45;;;;;;;30.25;13.95;;;-0.10;85.00;;;;;;5029588;28;20205;-70
2022/12/11 02:29:18;;;;;;;30.20;13.52;;;-0.10;84.70;;;;;;5024391;28;20625;-72
2022/12/11 02:31:49;;;;;;;28.60;13.15;;;-0.10;84.40;;;;;;5031067;28;20280;-72
2022/12/11 02:34:40;;;;;;;29.30;14.10;;;-0.10;84.40;;;;;;5027808;28;20247;-73
2022/12/11 02:37:12;;;;;;;21.17;10.68;;;0.00;84.70;;;;;;5023242;28;20672;-71
2022/12/11 02:39:41;;;;;;;28.98;13.50;;;0.00;84.60;;;;;;5030609;28;20240;-72
2022/12/11 02:42:09;;;;;;;24.08;12.38;;;0.00;84.00;;;;;;5025198;28;20182;-73
2022/12/11 02:44:35;;;;;;;19.80;9.93;;;0.10;83.70;;;;;;5025403;28;20182;-73
2022/12/11 02:47:05;;;;;;;26.20;11.60;;;0.20;82.80;;;;;;5020760;28;20264;-73
2022/12/11 02:49:32;;;;;;;33.55;14.73;;;0.30;82.40;;;;;;5029922;28;20618;-73
2022/12/11 02:52:02;;;;;;;32.95;14.82;;;0.10;82.50;;;;;;5032784;28;20556;-73
2022/12/11 02:54:32;;;;;;;32.25;15.27;;;-0.10;83.80;;;;;;5022639;28;20182;-73
2022/12/11 02:57:12;;;;;;;30.33;14.88;;;-0.20;84.60;;;;;;5024448;28;20181;-75
2022/12/11 02:59:41;;;;;;;29.15;13.73;;;0.00;85.00;;;;;;5025637;28;20216;-73
2022/12/11 03:02:07;;;;;;;27.30;14.25;;;0.00;84.60;;;;;;5026509;28;20193;-73
2022/12/11 03:04:35;;;;;;;34.63;14.15;;;0.20;84.70;;;;;;5032831;28;21011;-73
2022/12/11 03:07:12;;;;;;;24.40;11.88;;;0.20;84.00;;;;;;5024512;28;20213;-74
2022/12/11 03:09:39;;;;;;;31.83;14.45;;;0.10;83.60;;;;;;5029569;28;20288;-73
2022/12/11 03:12:08;;;;;;;29.05;13.18;;;-0.10;84.30;;;;;;5029269;28;20189;-72
2022/12/11 03:14:35;;;;;;;28.52;13.38;;;-0.20;85.00;;;;;;5032490;28;20204;-72
2022/12/11 03:17:22;;;;;;;27.50;13.55;;;-0.30;86.00;;;;;;5028099;28;20203;-73
2022/12/11 03:20:03;;;;;;;33.92;14.70;;;-0.20;86.30;;;;;;5028476;28;20213;-73
2022/12/11 03:22:42;;;;;;;33.40;14.38;;;-0.10;86.30;;;;;;5027537;28;20185;-74
2022/12/11 03:25:52;;;;;;;29.23;12.98;;;-0.10;86.00;;;;;;5027671;28;20181;-73
2022/12/11 03:28:26;;;;;;;32.53;14.20;;;-0.30;86.30;;;;;;5028684;28;20208;-73
2022/12/11 03:30:53;;;;;;;37.20;15.00;;;-0.40;87.00;;;;;;5029946;28;20212;-73
2022/12/11 03:33:37;;;;;;;28.88;14.82;;;-0.40;87.40;;;;;;5039028;28;20185;-73
2022/12/11 03:36:10;;;;;;;33.25;15.32;;;-0.40;87.60;;;;;;5037643;28;20186;-72
2022/12/11 03:39:01;;;;;;;34.78;15.57;;;-0.30;87.60;;;;;;5031920;28;20185;-73
2022/12/11 03:41:30;;;;;;;37.85;15.70;;;-0.30;87.40;;;;;;5020290;28;20208;-73
2022/12/11 03:43:57;;;;;;;27.63;14.15;;;-0.20;87.40;;;;;;5031339;28;20205;-72
2022/12/11 03:46:31;;;;;;;37.60;15.40;;;-0.30;87.10;;;;;;5034190;28;20236;-73
2022/12/11 03:49:02;;;;;;;34.42;16.77;;;-0.20;87.10;;;;;;5026531;28;20184;-72
2022/12/11 03:51:31;;;;;;;30.70;14.43;;;-0.20;87.10;;;;;;5034442;28;20248;-72
2022/12/11 03:53:57;;;;;;;28.83;14.32;;;-0.10;87.40;;;;;;5027396;28;20208;-72
2022/12/11 03:56:25;;;;;;;32.70;15.52;;;0.10;87.40;;;;;;5032752;28;20190;-72
2022/12/11 03:58:51;;;;;;;30.35;13.68;;;0.10;86.60;;;;;;5018415;28;20234;-72
2022/12/11 04:01:16;;;;;;;27.50;12.67;;;0.20;86.20;;;;;;5029003;28;20240;-74
2022/12/11 04:03:42;;;;;;;27.67;11.63;;;0.20;85.30;;;;;;5027927;28;20262;-74
2022/12/11 04:06:07;;;;;;;29.40;11.87;;;0.20;84.40;;;;;;5026679;28;20261;-72
2022/12/11 04:08:33;;;;;;;24.10;12.67;;;0.20;84.10;;;;;;5029982;28;20711;-72
2022/12/11 04:13:43;;;;;;;28.15;13.07;;;0.10;83.40;;;;;;5022722;28;20223;-73
2022/12/11 04:16:09;;;;;;;25.23;12.93;;;0.10;83.70;;;;;;5025138;28;20213;-73
2022/12/11 04:24:16;;;;;;;33.60;14.60;;;0.10;83.70;;;;;;5015795;28;20252;-73
2022/12/11 04:26:44;;;;;;;28.23;13.45;;;-0.10;84.00;;;;;;5022603;28;20957;-73
2022/12/11 04:29:10;;;;;;;25.45;13.00;;;0.00;84.60;;;;;;5024006;28;20217;-73
2022/12/11 04:31:35;;;;;;;28.30;13.60;;;0.00;84.60;;;;;;5026838;28;20227;-74
2022/12/11 04:34:01;;;;;;;24.40;12.30;;;0.00;84.60;;;;;;5027339;28;20186;-72
2022/12/11 04:36:26;;;;;;;25.03;11.70;;;0.00;83.10;;;;;;5025903;28;20256;-72
2022/12/11 04:38:52;;;;;;;23.23;12.60;;;-0.10;83.10;;;;;;5026877;28;20205;-72
2022/12/11 04:41:17;;;;;;;25.07;12.23;;;-0.10;83.60;;;;;;5026040;28;20182;-73
2022/12/11 04:43:46;;;;;;;26.30;12.77;;;-0.10;83.60;;;;;;5026228;28;20192;-73
2022/12/11 04:46:14;;;;;;;27.50;12.65;;;-0.10;83.10;;;;;;5019920;28;20202;-73
2022/12/11 04:48:40;;;;;;;30.10;13.13;;;-0.10;83.00;;;;;;5028447;28;20246;-73
2022/12/11 04:51:06;;;;;;;27.27;11.80;;;-0.10;82.80;;;;;;5023638;28;20745;-73
2022/12/11 04:53:32;;;;;;;23.60;12.45;;;-0.10;82.70;;;;;;5027298;28;20262;-72
2022/12/11 04:55:58;;;;;;;25.60;11.63;;;-0.10;82.20;;;;;;5029289;28;20185;-72
2022/12/11 04:58:25;;;;;;;20.47;10.80;;;-0.20;82.40;;;;;;5031097;28;20424;-73
2022/12/11 05:00:51;;;;;;;26.90;12.18;;;-0.20;82.20;;;;;;5029631;28;20749;-73
2022/12/11 05:03:17;;;;;;;24.42;13.05;;;-0.10;82.20;;;;;;5029721;28;20236;-73
2022/12/11 05:05:51;;;;;;;28.75;12.07;;;-0.20;81.90;;;;;;5025578;28;20192;-72
2022/12/11 05:08:17;;;;;;;23.17;11.35;;;-0.20;82.20;;;;;;5024509;28;20676;-72
2022/12/11 05:10:43;;;;;;;24.63;11.65;;;-0.20;81.80;;;;;;5025614;28;20714;-72
2022/12/11 05:13:08;;;;;;;23.03;10.50;;;-0.20;81.80;;;;;;5023076;28;20181;-72
2022/12/11 05:15:37;;;;;;;18.33;9.93;;;-0.30;81.80;;;;;;5028144;28;20177;-72
2022/12/11 05:18:03;;;;;;;27.60;11.25;;;-0.20;81.80;;;;;;5029091;28;20193;-73
2022/12/11 05:20:29;;;;;;;22.27;11.83;;;-0.20;81.70;;;;;;5029628;28;20209;-72
2022/12/11 05:22:54;;;;;;;19.60;10.20;;;-0.20;81.50;;;;;;5023929;28;20244;-72
2022/12/11 05:25:20;;;;;;;32.20;13.20;;;-0.20;81.90;;;;;;5034089;28;20201;-71
2022/12/11 05:27:45;;;;;;;23.90;12.33;;;-0.20;81.70;;;;;;5032382;28;20189;-73
2022/12/11 05:30:11;;;;;;;23.67;12.90;;;-0.20;81.50;;;;;;5024653;28;20205;-73
2022/12/11 05:32:36;;;;;;;28.73;12.73;;;-0.20;81.50;;;;;;5031873;28;20567;-72
2022/12/11 05:35:02;;;;;;;29.07;12.50;;;-0.30;81.50;;;;;;5033607;28;21093;-73
2022/12/11 05:37:28;;;;;;;28.10;11.93;;;-0.30;81.80;;;;;;5029131;28;20697;-72
2022/12/11 05:39:54;;;;;;;23.83;11.50;;;-0.40;81.80;;;;;;5028305;28;20240;-73
2022/12/11 05:42:19;;;;;;;25.37;12.93;;;-0.40;82.10;;;;;;5035455;28;20477;-72
2022/12/11 05:44:45;;;;;;;26.50;12.43;;;-0.50;82.10;;;;;;5031955;28;20197;-72
2022/12/11 05:47:10;;;;;;;26.83;12.57;;;-0.60;82.40;;;;;;5035348;28;20261;-73
2022/12/11 05:49:36;;;;;;;27.60;12.80;;;-0.70;83.10;;;;;;5031246;28;20738;-73
2022/12/11 05:52:02;;;;;;;32.70;14.10;;;-0.70;83.60;;;;;;5022755;28;20241;-73
2022/12/11 05:54:27;;;;;;;23.63;12.50;;;-0.70;84.00;;;;;;5022572;28;20557;-73
2022/12/11 05:56:53;;;;;;;30.60;13.20;;;-0.80;84.30;;;;;;5021960;28;20247;-72
2022/12/11 05:59:18;;;;;;;25.93;13.07;;;-0.90;84.60;;;;;;5028882;28;20760;-73
2022/12/11 06:01:44;;;;;;;25.13;12.57;;;-0.90;84.60;;;;;;5029299;28;20382;-72
2022/12/11 06:04:12;;;;;;;32.53;14.50;;;-0.80;84.60;;;;;;5031392;28;20256;-73
2022/12/11 06:06:39;;;;;;;29.58;13.18;;;-0.90;84.30;;;;;;5022855;28;20419;-74
2022/12/11 06:09:05;;;;;;;33.30;13.60;;;-1.00;84.40;;;;;;5029395;28;20332;-72
2022/12/11 06:11:32;;;;;;;29.70;13.07;;;-1.00;84.60;;;;;;5030828;28;20214;-72
2022/12/11 06:13:58;;;;;;;31.77;13.77;;;-1.00;84.90;;;;;;5031637;28;20185;-73
2022/12/11 06:16:23;;;;;;;30.17;12.97;;;-1.00;85.20;;;;;;5023810;28;20185;-73
2022/12/11 06:18:49;;;;;;;29.17;13.67;;;-1.00;85.30;;;;;;5021380;28;20679;-70
2022/12/11 06:21:20;;;;;;;30.90;14.70;;;-1.20;86.30;;;;;;5022030;28;20972;-73
2022/12/11 06:23:48;;;;;;;39.10;17.60;;;-1.20;87.40;;;;;;5019572;28;20186;-73
2022/12/11 06:26:15;;;;;;;45.15;20.42;;;-1.30;88.10;;;;;;5026368;28;20664;-72
2022/12/11 06:28:41;;;;;;;43.95;19.27;;;-1.30;89.00;;;;;;5019127;28;20198;-73
2022/12/11 06:31:07;;;;;;;43.23;18.30;;;-1.30;89.50;;;;;;5023870;28;20216;-73
2022/12/11 06:33:33;;;;;;;43.10;17.50;;;-1.30;89.60;;;;;;5029719;28;20287;-75
2022/12/11 06:36:04;;;;;;;38.67;18.00;;;-1.30;89.70;;;;;;5028997;28;20423;-74
2022/12/11 06:38:29;;;;;;;32.30;15.43;;;-1.30;89.90;;;;;;5026900;28;20589;-75
2022/12/11 06:40:59;;;;;;;26.57;13.87;;;-1.20;89.90;;;;;;5028974;28;20312;-74
2022/12/11 06:43:24;;;;;;;35.25;16.20;;;-1.10;89.60;;;;;;5027692;28;20201;-74
2022/12/11 06:45:51;;;;;;;32.53;15.05;;;-1.10;89.20;;;;;;5028290;28;20236;-73
2022/12/11 06:48:18;;;;;;;34.70;14.20;;;-1.20;88.70;;;;;;5025638;28;20664;-73
2022/12/11 06:50:44;;;;;;;36.88;16.15;;;-1.20;88.60;;;;;;5026204;28;20221;-73
2022/12/11 06:53:12;;;;;;;35.40;16.97;;;-1.20;88.40;;;;;;5020715;28;20695;-74
2022/12/11 06:55:37;;;;;;;29.48;14.27;;;-1.20;88.60;;;;;;5026089;28;20455;-74
2022/12/11 06:58:03;;;;;;;32.07;14.50;;;-1.20;88.70;;;;;;5023653;28;20217;-71
2022/12/11 07:00:30;;;;;;;30.40;13.80;;;-1.10;88.60;;;;;;5026308;28;20292;-72
2022/12/11 07:02:55;;;;;;;28.27;13.40;;;-1.10;88.10;;;;;;5021901;28;20199;-72
2022/12/11 07:05:21;;;;;;;29.33;13.70;;;-1.20;87.70;;;;;;5023925;28;20253;-75
2022/12/11 07:07:47;;;;;;;30.97;13.63;;;-1.20;87.40;;;;;;5018807;28;20240;-73
2022/12/11 07:10:12;;;;;;;32.63;15.33;;;-1.30;87.60;;;;;;5025324;28;20248;-74
2022/12/11 07:12:38;;;;;;;29.93;14.03;;;-1.40;87.70;;;;;;5024607;28;20640;-73
2022/12/11 07:15:04;;;;;;;32.57;14.37;;;-1.40;88.10;;;;;;5025903;28;20181;-75
2022/12/11 07:17:30;;;;;;;32.70;15.25;;;-1.40;88.40;;;;;;5047105;28;20515;-72
2022/12/11 07:19:56;;;;;;;36.13;15.00;;;-1.40;88.90;;;;;;5021629;28;20293;-72
2022/12/11 07:22:21;;;;;;;36.33;15.30;;;-1.30;89.20;;;;;;5027491;28;20197;-73
2022/12/11 07:24:47;;;;;;;33.30;15.00;;;-1.20;89.00;;;;;;5026663;28;20188;-73
2022/12/11 07:27:12;;;;;;;29.63;15.10;;;-1.10;88.90;;;;;;5025990;28;20208;-72
2022/12/11 07:29:38;;;;;;;29.83;14.30;;;-1.20;88.30;;;;;;5028941;28;20304;-75
2022/12/11 07:32:04;;;;;;;34.90;15.73;;;-1.20;88.30;;;;;;5026449;28;20546;-72
2022/12/11 07:34:29;;;;;;;29.80;14.67;;;-1.10;88.30;;;;;;5024302;28;20182;-73
2022/12/11 07:36:55;;;;;;;32.47;15.00;;;-1.00;88.10;;;;;;5025701;28;20221;-73
2022/12/11 07:39:20;;;;;;;33.30;16.07;;;-1.00;87.80;;;;;;5021740;28;20197;-74
2022/12/11 07:41:46;;;;;;;40.70;16.10;;;-1.10;87.40;;;;;;5031024;28;20193;-73
2022/12/11 07:44:12;;;;;;;33.97;14.73;;;-1.20;87.40;;;;;;5019402;28;20625;-75
2022/12/11 07:46:38;;;;;;;33.37;13.70;;;-1.20;87.40;;;;;;5026833;28;20223;-74
2022/12/11 07:49:05;;;;;;;31.27;15.50;;;-1.30;87.70;;;;;;5021938;28;20453;-75
2022/12/11 07:51:34;;;;;;;27.98;12.25;;;-1.30;87.70;;;;;;5023978;28;20209;-72
2022/12/11 07:54:04;;;;;;;35.13;14.18;;;-1.30;87.80;;;;;;5028267;28;20216;-72
2022/12/11 07:56:31;;;;;;;28.50;14.60;;;-1.30;87.80;;;;;;5027422;28;20559;-73
2022/12/11 07:58:59;;;;;;;35.13;14.55;;;-1.20;88.00;;;;;;5023495;28;20231;-74
2022/12/11 08:01:27;;;;;;;30.95;14.52;;;-1.10;87.70;;;;;;5025067;28;21745;-73
2022/12/11 08:03:53;;;;;;;29.23;13.77;;;-1.00;87.60;;;;;;5030493;28;20200;-71
2022/12/11 08:06:23;;;;;;;28.23;13.60;;;-0.90;87.40;;;;;;5023835;28;20197;-74
2022/12/11 08:08:48;;;;;;;36.75;17.33;;;-0.90;87.30;;;;;;5029950;28;20239;-72
2022/12/11 08:11:14;;;;;;;34.90;15.63;;;-0.80;87.30;;;;;;5026132;28;20719;-72
2022/12/11 08:13:41;;;;;;;33.33;15.17;;;-0.70;87.00;;;;;;5026307;28;20568;-73
2022/12/11 08:16:10;;;;;;;33.35;14.88;;;-0.70;86.50;;;;;;5027760;28;20421;-74
2022/12/11 08:18:36;;;;;;;37.72;14.77;;;-0.60;86.30;;;;;;5037460;28;20272;-74
2022/12/11 08:21:06;;;;;;;35.17;15.43;;;-0.60;85.30;;;;;;5023439;28;20212;-74
2022/12/11 08:23:32;;;;;;;32.00;15.52;;;-0.60;84.60;;;;;;5021219;28;20193;-75
2022/12/11 08:26:00;;;;;;;30.43;14.57;;;-0.60;84.70;;;;;;5028032;28;20195;-75
2022/12/11 08:28:25;;;;;;;31.58;14.02;;;-0.60;84.60;;;;;;5029262;28;20445;-75
2022/12/11 08:30:51;;;;;;;26.63;13.60;;;-0.60;84.10;;;;;;5027666;28;20262;-75
2022/12/11 08:33:17;;;;;;;30.13;14.90;;;-0.50;84.00;;;;;;5031027;28;20252;-75
2022/12/11 08:35:44;;;;;;;31.23;16.00;;;-0.50;84.30;;;;;;5025008;28;20212;-76
2022/12/11 08:38:09;;;;;;;31.55;15.95;;;-0.50;84.30;;;;;;5026002;28;20178;-74
2022/12/11 08:40:35;;;;;;;35.97;15.30;;;-0.40;84.30;;;;;;5019244;28;20216;-73
2022/12/11 08:43:00;;;;;;;34.33;15.33;;;-0.30;84.00;;;;;;5023252;28;20216;-75
2022/12/11 08:45:26;;;;;;;29.43;13.77;;;-0.20;83.70;;;;;;5028461;28;20570;-75
2022/12/11 08:47:52;;;;;;;32.80;14.70;;;-0.10;83.70;;;;;;5028115;28;20559;-73
2022/12/11 08:50:18;;;;;;;30.42;13.15;;;0.00;82.70;;;;;;5024760;28;20323;-73
2022/12/11 08:52:44;;;;;;;25.80;12.83;;;-0.20;81.50;;;;;;5023077;28;20206;-75
2022/12/11 08:55:10;;;;;;;34.17;14.83;;;-0.30;81.70;;;;;;5019710;28;20490;-73
2022/12/11 08:57:38;;;;;;;30.70;13.33;;;-0.30;81.80;;;;;;5023017;28;20523;-75
2022/12/11 09:00:12;;;;;;;34.85;14.75;;;-0.20;82.40;;;;;;5023489;28;20224;-74
2022/12/11 09:02:38;;;;;;;35.97;14.85;;;-0.20;82.70;;;;;;5022893;28;20173;-74
2022/12/11 09:05:06;;;;;;;31.27;14.17;;;-0.10;82.80;;;;;;5021679;28;20276;-75
2022/12/11 09:07:33;;;;;;;31.42;14.07;;;-0.20;83.00;;;;;;5018898;28;20193;-75
2022/12/11 09:09:59;;;;;;;29.83;13.07;;;-0.10;83.10;;;;;;5028820;28;20218;-73
2022/12/11 09:12:26;;;;;;;33.80;13.60;;;0.10;83.60;;;;;;5022279;28;20213;-73
2022/12/11 09:14:52;;;;;;;36.08;15.48;;;0.10;81.80;;;;;;5022582;28;20186;-75
2022/12/11 09:17:17;;;;;;;32.40;14.40;;;0.10;81.80;;;;;;5021930;28;20178;-73
2022/12/11 09:19:43;;;;;;;34.63;16.10;;;0.20;81.90;;;;;;5019162;28;20351;-72
2022/12/11 09:22:10;;;;;;;37.37;15.67;;;0.20;81.80;;;;;;5018102;28;20181;-75
2022/12/11 09:24:36;;;;;;;26.30;13.85;;;0.20;81.90;;;;;;5026953;28;20192;-73
2022/12/11 09:27:03;;;;;;;27.13;14.07;;;0.20;81.70;;;;;;5023559;28;20181;-73
2022/12/11 09:29:28;;;;;;;29.55;14.23;;;0.20;81.90;;;;;;5022229;28;20205;-75
2022/12/11 09:31:54;;;;;;;35.37;15.00;;;0.30;82.10;;;;;;5024188;28;20189;-72
2022/12/11 09:34:19;;;;;;;30.90;14.50;;;0.40;82.40;;;;;;5025245;28;20189;-73
2022/12/11 09:36:46;;;;;;;33.80;14.70;;;0.50;82.70;;;;;;5024745;28;20525;-71
2022/12/11 09:39:12;;;;;;;32.10;14.20;;;0.60;82.70;;;;;;5024196;28;20201;-71
2022/12/11 09:41:47;;;;;;;30.27;13.55;;;0.70;82.10;;;;;;5023819;28;20215;-71
2022/12/11 09:44:40;;;;;;;27.77;13.82;;;0.90;81.40;;;;;;5024570;28;20810;-71
2022/12/11 09:47:27;;;;;;;31.10;15.10;;;0.90;81.10;;;;;;5016289;28;20668;-72
2022/12/11 09:50:04;;;;;;;28.20;14.70;;;1.00;80.90;;;;;;5019035;28;20217;-73
2022/12/11 09:52:48;;;;;;;29.77;14.05;;;1.10;80.60;;;;;;5027328;28;20199;-71
2022/12/11 09:55:19;;;;;;;30.67;14.15;;;0.90;79.50;;;;;;5023447;28;20272;-72
2022/12/11 09:58:01;;;;;;;29.25;12.70;;;1.00;80.20;;;;;;5024372;28;20216;-72
2022/12/11 10:00:48;;;;;;;32.25;14.02;;;1.20;78.90;;;;;;5026745;28;20220;-71
2022/12/11 10:03:19;;;;;;;25.40;12.25;;;1.20;78.40;;;;;;5024253;28;20196;-71
2022/12/11 10:06:05;;;;;;;27.08;11.88;;;1.20;78.40;;;;;;5026182;28;20189;-72
2022/12/11 10:08:59;;;;;;;25.10;12.65;;;1.30;78.60;;;;;;5022327;28;20621;-70
2022/12/11 10:11:52;;;;;;;30.02;13.48;;;1.00;77.40;;;;;;5027090;28;20636;-71
2022/12/11 10:14:51;;;;;;;29.23;12.73;;;1.00;78.40;;;;;;5028046;28;20209;-70
2022/12/11 10:17:30;;;;;;;33.17;13.30;;;1.00;78.00;;;;;;5027144;28;20217;-72
2022/12/11 10:20:02;;;;;;;28.88;12.13;;;1.10;78.30;;;;;;5026162;28;20224;-72
2022/12/11 10:22:31;;;;;;;25.15;12.90;;;1.20;78.10;;;;;;5021448;28;20188;-70
2022/12/11 10:25:01;;;;;;;24.27;12.23;;;1.40;77.30;;;;;;5031279;28;20208;-71
2022/12/11 10:27:32;;;;;;;23.73;13.10;;;1.50;76.80;;;;;;5023621;28;20188;-70
2022/12/11 10:30:20;;;;;;;22.85;12.50;;;1.60;77.10;;;;;;5023293;28;20225;-71
2022/12/11 10:32:52;;;;;;;21.50;10.30;;;1.80;77.10;;;;;;5020450;28;20178;-71
2022/12/11 10:35:40;;;;;;;22.05;11.27;;;1.90;76.40;;;;;;5026113;28;20193;-72
2022/12/11 10:38:14;;;;;;;25.63;12.18;;;1.70;74.50;;;;;;5017114;28;20178;-71
2022/12/11 10:40:45;;;;;;;26.25;12.85;;;1.50;74.50;;;;;;5022615;28;20205;-71
2022/12/11 10:43:11;;;;;;;25.80;12.85;;;1.40;75.40;;;;;;5021716;28;20658;-72
2022/12/11 10:45:36;;;;;;;35.40;15.27;;;1.30;76.10;;;;;;5032428;28;20741;-72
2022/12/11 10:48:04;;;;;;;40.17;17.03;;;1.10;77.70;;;;;;5028562;28;20196;-73
2022/12/11 10:50:30;;;;;;;38.65;17.10;;;0.80;80.30;;;;;;5022293;28;20212;-72
2022/12/11 10:52:56;;;;;;;29.33;15.53;;;0.50;81.70;;;;;;5025353;28;20567;-72
2022/12/11 10:55:27;;;;;;;42.67;17.00;;;0.40;82.80;;;;;;5023103;28;20213;-72
2022/12/11 10:58:02;;;;;;;43.03;17.38;;;0.50;83.40;;;;;;5024449;28;20525;-72
2022/12/11 11:00:37;;;;;;;45.17;19.27;;;0.40;84.10;;;;;;5024531;28;20267;-73
2022/12/11 11:03:05;;;;;;;43.67;18.77;;;0.50;84.70;;;;;;5025961;28;20185;-70
2022/12/11 11:05:35;;;;;;;41.20;18.33;;;0.50;84.70;;;;;;5025446;28;20185;-73
2022/12/11 11:08:12;;;;;;;42.78;18.92;;;0.40;84.70;;;;;;5023382;28;20186;-71
2022/12/11 11:10:47;;;;;;;40.58;17.38;;;0.50;85.00;;;;;;5024850;28;20302;-72
2022/12/11 11:13:13;;;;;;;37.20;16.60;;;0.70;84.70;;;;;;5042411;28;20192;-75
2022/12/11 11:15:38;;;;;;;39.00;17.40;;;0.60;83.40;;;;;;5036212;28;20185;-71
2022/12/11 11:18:26;;;;;;;36.90;17.30;;;0.60;83.40;;;;;;5035740;28;20182;-71
2022/12/11 11:20:52;;;;;;;35.47;16.85;;;0.70;83.60;;;;;;5027094;28;20216;-72
2022/12/11 11:23:20;;;;;;;32.97;16.60;;;0.90;83.60;;;;;;5035178;28;20193;-71
2022/12/11 11:25:58;;;;;;;36.40;17.55;;;0.90;83.10;;;;;;5032249;28;20181;-72
2022/12/11 11:28:34;;;;;;;39.45;19.13;;;0.90;83.30;;;;;;5025528;28;20190;-73
2022/12/11 11:31:07;;;;;;;38.30;17.58;;;0.90;83.30;;;;;;5032703;28;20220;-72
2022/12/11 11:33:34;;;;;;;41.33;18.33;;;0.80;83.10;;;;;;5028819;28;20272;-75
2022/12/11 11:36:04;;;;;;;35.85;17.27;;;0.50;82.80;;;;;;5032846;28;20209;-72
2022/12/11 11:38:57;;;;;;;39.22;18.23;;;0.50;83.40;;;;;;5017690;28;20216;-73
2022/12/11 11:41:57;;;;;;;35.13;17.63;;;0.60;83.80;;;;;;5020680;28;20200;-75
2022/12/11 11:44:30;;;;;;;42.63;16.88;;;0.80;83.40;;;;;;5023833;28;20263;-74
2022/12/11 11:47:13;;;;;;;35.50;16.38;;;0.90;82.80;;;;;;5020147;28;20187;-73
2022/12/11 11:50:23;;;;;;;41.25;18.85;;;1.10;83.00;;;;;;5020595;28;20554;-74
2022/12/11 11:52:57;;;;;;;42.10;18.27;;;0.90;81.80;;;;;;5020433;28;20204;-71
2022/12/11 11:55:34;;;;;;;42.03;18.55;;;0.80;82.80;;;;;;5026868;28;20281;-74
2022/12/11 11:58:06;;;;;;;32.67;16.30;;;0.90;82.80;;;;;;5022520;28;20556;-71
2022/12/11 12:00:32;;;;;;;44.42;19.75;;;0.90;82.50;;;;;;5018131;28;20205;-72
2022/12/11 12:03:19;;;;;;;35.63;17.80;;;0.90;82.50;;;;;;5022637;28;20251;-73
2022/12/11 12:06:01;;;;;;;42.58;18.10;;;0.80;82.40;;;;;;5024876;28;20198;-71
2022/12/11 12:08:36;;;;;;;38.40;18.65;;;0.80;82.50;;;;;;5021998;28;20193;-73
2022/12/11 12:11:04;;;;;;;39.40;17.63;;;0.80;82.50;;;;;;5031582;28;20209;-72
2022/12/11 12:13:54;;;;;;;36.45;17.05;;;0.80;82.50;;;;;;5021821;28;20177;-73
2022/12/11 12:16:58;;;;;;;37.97;18.65;;;0.80;82.20;;;;;;5027600;28;20174;-71
2022/12/11 12:19:26;;;;;;;36.08;16.70;;;0.90;82.20;;;;;;5019887;28;20204;-74
2022/12/11 12:21:53;;;;;;;36.78;17.88;;;1.10;81.90;;;;;;5014034;28;20653;-71
2022/12/11 12:24:24;;;;;;;39.03;17.27;;;1.20;81.70;;;;;;5022079;28;20664;-75
2022/12/11 12:27:09;;;;;;;31.77;16.10;;;1.00;81.10;;;;;;5023165;28;20205;-72
2022/12/11 12:30:04;;;;;;;36.28;17.67;;;1.00;82.20;;;;;;5022372;28;20591;-72
2022/12/11 12:32:43;;;;;;;37.60;18.20;;;1.20;83.40;;;;;;4999204;28;20197;-72
2022/12/11 12:35:35;;;;;;;38.13;17.83;;;1.10;83.30;;;;;;5021566;28;20182;-71
2022/12/11 12:38:03;;;;;;;37.85;17.52;;;1.20;83.60;;;;;;5019539;28;20283;-72
2022/12/11 12:40:31;;;;;;;36.95;17.17;;;1.10;83.40;;;;;;5021894;28;20201;-71
2022/12/11 12:43:31;;;;;;;37.90;18.10;;;1.00;83.30;;;;;;5030227;28;20268;-71
2022/12/11 12:46:33;;;;;;;35.08;16.63;;;1.10;84.30;;;;;;5021096;28;20626;-73
2022/12/11 12:49:01;;;;;;;34.10;16.73;;;1.10;83.70;;;;;;5026092;28;20197;-71
2022/12/11 12:51:27;;;;;;;38.58;18.45;;;1.00;83.70;;;;;;5029009;28;20546;-72
2022/12/11 12:54:00;;;;;;;42.13;18.83;;;1.10;84.30;;;;;;5023471;28;20184;-73
2022/12/11 12:56:29;;;;;;;47.00;20.83;;;1.20;84.70;;;;;;5024385;28;20656;-73